createdAt,value
2023-03-26T00:01:21.142Z,8.51
2023-03-26T00:03:53.886Z,8.42
2023-03-26T00:06:28.819Z,8.42
2023-03-26T00:08:58.330Z,8.51
2023-03-26T00:11:27.383Z,8.49
2023-03-26T00:13:57.142Z,8.44
2023-03-26T00:16:25.135Z,8.50
2023-03-26T00:18:54.500Z,8.39
2023-03-26T00:21:29.351Z,8.47
2023-03-26T00:23:59.599Z,8.51
2023-03-26T00:26:27.586Z,8.52
2023-03-26T00:28:54.507Z,8.55
2023-03-26T00:31:21.586Z,8.61
2023-03-26T00:33:48.256Z,8.53
2023-03-26T00:36:17.399Z,8.58
2023-03-26T00:38:46.784Z,8.53
2023-03-26T00:41:17.808Z,8.45
2023-03-26T00:43:46.748Z,8.52
2023-03-26T00:46:14.681Z,8.48
2023-03-26T00:48:45.433Z,8.47
2023-03-26T00:51:16.490Z,8.42
2023-03-26T00:53:48.630Z,8.47
2023-03-26T00:56:15.175Z,8.47
2023-03-26T00:58:42.672Z,8.36
2023-03-26T01:01:16.313Z,8.42
2023-03-26T01:04:00.705Z,8.47
2023-03-26T01:06:35.607Z,8.53
2023-03-26T01:09:17.396Z,8.58
2023-03-26T01:11:44.696Z,8.46
2023-03-26T01:14:15.867Z,8.47
2023-03-26T01:16:50.263Z,8.43
2023-03-26T01:19:35.923Z,8.41
2023-03-26T01:22:02.638Z,8.36
2023-03-26T01:24:29.317Z,8.39
2023-03-26T01:27:09.504Z,8.37
2023-03-26T01:29:55.736Z,8.37
2023-03-26T01:32:28.283Z,8.27
2023-03-26T01:35:30.456Z,8.30
2023-03-26T01:38:15.793Z,8.15
2023-03-26T01:40:49.434Z,8.09
2023-03-26T01:43:37.575Z,8.01
2023-03-26T01:46:09.552Z,7.95
2023-03-26T01:48:39.664Z,7.86
2023-03-26T01:51:08.048Z,7.89
2023-03-26T01:53:40.033Z,7.95
2023-03-26T01:56:16.785Z,7.89
2023-03-26T01:59:29.543Z,7.95
2023-03-26T02:02:21.713Z,7.92
2023-03-26T02:05:02.086Z,7.91
2023-03-26T02:07:55.953Z,7.95
2023-03-26T02:10:30.679Z,7.83
2023-03-26T02:12:58.847Z,7.78
2023-03-26T02:15:25.513Z,7.69
2023-03-26T02:17:53.054Z,7.60
2023-03-26T02:20:21.587Z,7.56
2023-03-26T02:22:48.248Z,7.49
2023-03-26T02:25:18.250Z,7.33
2023-03-26T02:27:45.794Z,7.36
2023-03-26T02:30:17.117Z,7.22
2023-03-26T02:32:44.129Z,7.22
2023-03-26T02:35:12.219Z,7.28
2023-03-26T02:37:39.537Z,7.32
2023-03-26T02:40:11.104Z,7.39
2023-03-26T02:42:38.411Z,7.45
2023-03-26T02:45:06.714Z,7.46
2023-03-26T02:47:33.806Z,7.40
2023-03-26T02:50:01.388Z,7.44
2023-03-26T02:52:28.107Z,7.46
2023-03-26T02:54:54.599Z,7.51
2023-03-26T02:57:23.419Z,7.51
2023-03-26T02:59:50.348Z,7.47
2023-03-26T03:02:18.580Z,7.61
2023-03-26T03:04:45.315Z,7.60
2023-03-26T03:07:14.385Z,7.57
2023-03-26T03:09:41.118Z,7.63
2023-03-26T03:12:07.567Z,7.68
2023-03-26T03:14:34.443Z,7.67
2023-03-26T03:17:00.886Z,7.64
2023-03-26T03:19:27.930Z,7.62
2023-03-26T03:21:54.317Z,7.61
2023-03-26T03:24:20.918Z,7.59
2023-03-26T03:26:47.885Z,7.55
2023-03-26T03:29:14.333Z,7.57
2023-03-26T03:31:41.647Z,7.54
2023-03-26T03:34:08.075Z,7.54
2023-03-26T03:36:38.719Z,7.51
2023-03-26T03:39:05.353Z,7.42
2023-03-26T03:41:32.169Z,7.40
2023-03-26T03:43:59.772Z,7.51
2023-03-26T03:46:26.340Z,7.50
2023-03-26T03:48:52.777Z,7.44
2023-03-26T03:51:19.675Z,7.44
2023-03-26T03:53:47.419Z,7.41
2023-03-26T03:56:14.632Z,7.46
2023-03-26T03:58:42.078Z,7.39
2023-03-26T04:01:08.491Z,7.30
2023-03-26T04:03:38.843Z,7.33
2023-03-26T04:06:10.963Z,7.46
2023-03-26T04:08:37.845Z,7.49
2023-03-26T04:11:04.790Z,7.43
2023-03-26T04:13:31.639Z,7.46
2023-03-26T04:15:58.218Z,7.39
2023-03-26T04:18:26.266Z,7.39
2023-03-26T04:20:54.932Z,7.33
2023-03-26T04:23:22.478Z,7.44
2023-03-26T04:25:54.619Z,7.39
2023-03-26T04:28:30.451Z,7.38
2023-03-26T04:31:01.002Z,7.30
2023-03-26T04:33:30.166Z,7.29
2023-03-26T04:36:01.833Z,7.24
2023-03-26T04:38:33.334Z,7.31
2023-03-26T04:41:04.026Z,7.44
2023-03-26T04:43:31.137Z,7.36
2023-03-26T04:45:58.112Z,7.36
2023-03-26T04:48:24.663Z,7.43
2023-03-26T04:50:51.361Z,7.40
2023-03-26T04:53:21.100Z,7.30
2023-03-26T04:55:59.980Z,7.28
2023-03-26T04:58:32.677Z,7.25
2023-03-26T05:01:10.548Z,7.12
2023-03-26T05:03:39.148Z,7.20
2023-03-26T05:06:06.126Z,7.13
2023-03-26T05:08:32.602Z,7.17
2023-03-26T05:10:59.174Z,7.06
2023-03-26T05:13:25.642Z,7.02
2023-03-26T05:15:52.525Z,6.97
2023-03-26T05:18:18.993Z,6.99
2023-03-26T05:20:46.300Z,6.97
2023-03-26T05:23:12.889Z,7.04
2023-03-26T05:25:39.329Z,6.91
2023-03-26T05:28:06.277Z,6.93
2023-03-26T05:30:32.752Z,6.97
2023-03-26T05:33:00.823Z,7.00
2023-03-26T05:35:27.357Z,6.98
2023-03-26T05:37:53.928Z,6.94
2023-03-26T05:40:21.814Z,6.95
2023-03-26T05:42:48.435Z,7.03
2023-03-26T05:45:16.071Z,7.00
2023-03-26T05:47:42.884Z,7.03
2023-03-26T05:50:10.468Z,6.92
2023-03-26T05:52:37.140Z,6.94
2023-03-26T05:55:05.309Z,6.93
2023-03-26T05:57:32.311Z,6.96
2023-03-26T05:59:59.945Z,6.97
2023-03-26T06:02:26.786Z,6.97
2023-03-26T06:04:53.230Z,6.99
2023-03-26T06:07:20.505Z,6.98
2023-03-26T06:09:47.168Z,7.05
2023-03-26T06:12:15.136Z,6.85
2023-03-26T06:14:44.819Z,6.81
2023-03-26T06:17:11.878Z,6.81
2023-03-26T06:19:38.325Z,6.80
2023-03-26T06:22:05.443Z,6.69
2023-03-26T06:24:32.740Z,6.72
2023-03-26T06:26:59.604Z,6.70
2023-03-26T06:29:26.944Z,6.75
2023-03-26T06:31:53.508Z,6.75
2023-03-26T06:34:20.199Z,6.80
2023-03-26T06:36:48.642Z,6.80
2023-03-26T06:39:15.954Z,6.89
2023-03-26T06:41:42.377Z,6.82
2023-03-26T06:44:09.029Z,6.80
2023-03-26T06:46:36.150Z,6.86
2023-03-26T06:49:02.986Z,6.87
2023-03-26T06:51:29.415Z,6.91
2023-03-26T06:53:55.974Z,6.98
2023-03-26T06:56:22.417Z,6.97
2023-03-26T06:58:48.994Z,6.98
2023-03-26T07:01:16.619Z,7.03
2023-03-26T07:03:43.166Z,7.00
2023-03-26T07:06:09.936Z,7.08
2023-03-26T07:08:36.438Z,7.11
2023-03-26T07:11:02.858Z,7.12
2023-03-26T07:13:29.475Z,7.13
2023-03-26T07:15:56.071Z,7.32
2023-03-26T07:18:22.616Z,7.30
2023-03-26T07:20:49.302Z,7.31
2023-03-26T07:23:20.089Z,7.35
2023-03-26T07:25:48.458Z,7.42
2023-03-26T07:28:44.106Z,7.40
2023-03-26T07:31:37.101Z,7.44
2023-03-26T07:34:29.688Z,7.54
2023-03-26T07:37:08.513Z,7.49
2023-03-26T07:39:47.583Z,7.44
2023-03-26T07:42:31.594Z,7.45
2023-03-26T07:45:11.199Z,7.46
2023-03-26T07:47:39.365Z,7.45
2023-03-26T07:50:07.316Z,7.40
2023-03-26T07:52:34.134Z,7.38
2023-03-26T07:55:01.225Z,7.41
2023-03-26T07:57:52.502Z,7.32
2023-03-26T08:00:24.456Z,7.30
2023-03-26T08:03:07.920Z,7.36
2023-03-26T08:05:45.755Z,7.30
2023-03-26T08:08:35.917Z,7.25
2023-03-26T08:11:17.743Z,7.38
2023-03-26T08:14:14.734Z,7.28
2023-03-26T08:16:53.509Z,7.32
2023-03-26T08:19:24.234Z,7.35
2023-03-26T08:21:58.321Z,7.35
2023-03-26T08:24:36.544Z,7.27
2023-03-26T08:27:21.593Z,7.20
2023-03-26T08:30:02.868Z,7.25
2023-03-26T08:32:29.521Z,7.35
2023-03-26T08:34:57.551Z,7.31
2023-03-26T08:37:24.599Z,7.20
2023-03-26T08:39:51.120Z,7.27
2023-03-26T08:42:45.591Z,7.23
2023-03-26T08:45:27.025Z,7.36
2023-03-26T08:48:25.780Z,7.33
2023-03-26T08:51:13.909Z,7.29
2023-03-26T08:54:14.852Z,7.35
2023-03-26T08:57:02.540Z,7.34
2023-03-26T08:59:56.635Z,7.46
2023-03-26T09:02:52.252Z,7.48
2023-03-26T09:05:31.334Z,7.35
2023-03-26T09:08:30.275Z,7.26
2023-03-26T09:11:23.825Z,6.96
2023-03-26T09:14:08.356Z,6.95
2023-03-26T09:16:54.160Z,7.09
2023-03-26T09:19:45.786Z,7.17
2023-03-26T09:22:31.219Z,7.27
2023-03-26T09:25:00.778Z,7.06
2023-03-26T09:27:52.186Z,7.16
2023-03-26T09:30:54.655Z,6.80
2023-03-26T09:33:43.088Z,6.96
2023-03-26T09:36:22.419Z,6.97
2023-03-26T09:38:57.553Z,6.90
2023-03-26T09:41:23.806Z,6.98
2023-03-26T09:44:24.384Z,6.93
2023-03-26T09:47:24.658Z,7.05
2023-03-26T09:50:09.980Z,7.19
2023-03-26T09:52:42.234Z,7.45
2023-03-26T09:55:25.997Z,7.51
2023-03-26T09:57:53.861Z,7.64
2023-03-26T10:00:28.685Z,7.79
2023-03-26T10:03:13.998Z,7.61
2023-03-26T10:05:54.211Z,7.71
2023-03-26T10:08:39.298Z,7.78
2023-03-26T10:11:49.887Z,7.98
2023-03-26T10:14:17.547Z,7.95
2023-03-26T10:17:11.344Z,8.06
2023-03-26T10:20:08.455Z,8.28
2023-03-26T10:23:04.888Z,8.51
2023-03-26T10:25:43.267Z,8.77
2023-03-26T10:28:29.074Z,8.72
2023-03-26T10:31:07.910Z,8.68
2023-03-26T10:33:52.526Z,8.88
2023-03-26T10:36:32.333Z,8.80
2023-03-26T10:39:35.921Z,8.85
2023-03-26T10:42:22.677Z,8.98
2023-03-26T10:45:07.456Z,9.01
2023-03-26T10:48:02.121Z,8.88
2023-03-26T10:50:51.196Z,8.81
2023-03-26T10:53:36.100Z,8.75
2023-03-26T10:56:27.555Z,8.69
2023-03-26T10:58:56.866Z,8.45
2023-03-26T11:01:42.061Z,8.61
2023-03-26T11:04:30.311Z,8.57
2023-03-26T11:07:19.114Z,8.73
2023-03-26T11:10:03.392Z,8.78
2023-03-26T11:13:00.966Z,8.81
2023-03-26T11:15:39.770Z,8.53
2023-03-26T11:18:15.786Z,8.65
2023-03-26T11:20:51.172Z,8.57
2023-03-26T11:23:23.639Z,8.58
2023-03-26T11:26:07.794Z,8.85
2023-03-26T11:28:40.323Z,8.99
2023-03-26T11:31:40.205Z,8.97
2023-03-26T11:34:13.335Z,9.08
2023-03-26T11:36:47.139Z,9.30
2023-03-26T11:39:25.384Z,9.38
2023-03-26T11:42:05.958Z,9.41
2023-03-26T11:44:39.466Z,9.43
2023-03-26T11:47:10.555Z,9.35
2023-03-26T11:49:38.557Z,9.34
2023-03-26T11:52:05.131Z,9.30
2023-03-26T11:54:32.946Z,9.41
2023-03-26T11:57:14.272Z,9.17
2023-03-26T11:59:57.714Z,9.23
2023-03-26T12:02:25.070Z,9.26
2023-03-26T12:04:55.303Z,9.17
2023-03-26T12:07:33.913Z,9.09
2023-03-26T12:10:18.352Z,9.17
2023-03-26T12:12:47.904Z,8.97
2023-03-26T12:15:16.634Z,9.05
2023-03-26T12:17:43.173Z,8.96
2023-03-26T12:20:42.504Z,8.90
2023-03-26T12:23:35.744Z,8.79
2023-03-26T12:26:15.706Z,8.71
2023-03-26T12:28:47.662Z,8.57
2023-03-26T12:31:18.964Z,8.48
2023-03-26T12:34:03.977Z,8.33
2023-03-26T12:36:33.280Z,8.30
2023-03-26T12:39:42.791Z,8.07
2023-03-26T12:44:44.759Z,7.96
2023-03-26T12:44:59.310Z,7.83
2023-03-26T12:47:57.561Z,7.81
2023-03-26T12:50:34.533Z,7.82
2023-03-26T12:53:17.890Z,7.79
2023-03-26T12:56:07.511Z,7.78
2023-03-26T12:58:54.930Z,7.89
2023-03-26T13:01:43.513Z,7.92
2023-03-26T13:04:16.371Z,8.00
2023-03-26T13:07:00.482Z,8.03
2023-03-26T13:09:39.310Z,8.13
2023-03-26T13:12:43.969Z,8.20
2023-03-26T13:15:13.601Z,8.22
2023-03-26T13:18:27.508Z,8.22
2023-03-26T13:21:05.384Z,8.36
2023-03-26T13:23:46.629Z,8.43
2023-03-26T13:26:32.013Z,8.56
2023-03-26T13:29:23.510Z,8.64
2023-03-26T13:31:52.744Z,8.68
2023-03-26T13:34:34.116Z,8.67
2023-03-26T13:37:12.614Z,8.72
2023-03-26T13:39:57.135Z,8.85
2023-03-26T13:42:42.019Z,8.91
2023-03-26T13:45:17.473Z,8.82
2023-03-26T13:47:49.538Z,8.94
2023-03-26T13:50:26.868Z,9.09
2023-03-26T13:52:59.389Z,9.25
2023-03-26T13:55:31.133Z,9.23
2023-03-26T13:58:10.973Z,9.24
2023-03-26T14:01:02.045Z,9.30
2023-03-26T14:03:42.940Z,9.18
2023-03-26T14:06:57.597Z,8.99
2023-03-26T14:09:27.701Z,8.86
2023-03-26T14:11:57.714Z,8.79
2023-03-26T14:14:43.457Z,8.66
2023-03-26T14:17:19.873Z,8.54
2023-03-26T14:20:09.948Z,8.46
2023-03-26T14:23:06.854Z,8.34
2023-03-26T14:25:46.630Z,8.40
2023-03-26T14:28:51.322Z,8.41
2023-03-26T14:31:29.069Z,8.57
2023-03-26T14:34:23.449Z,8.76
2023-03-26T14:37:28.469Z,8.95
2023-03-26T14:40:15.054Z,8.91
2023-03-26T14:43:01.813Z,8.77
2023-03-26T14:45:43.484Z,8.71
2023-03-26T14:48:26.868Z,8.69
2023-03-26T14:51:11.596Z,8.62
2023-03-26T14:53:44.178Z,8.56
2023-03-26T14:56:36.423Z,8.59
2023-03-26T14:59:38.429Z,8.50
2023-03-26T15:02:17.420Z,8.48
2023-03-26T15:05:21.544Z,8.56
2023-03-26T15:08:09.904Z,8.47
2023-03-26T15:10:57.953Z,8.61
2023-03-26T15:13:30.543Z,8.51
2023-03-26T15:16:21.252Z,8.58
2023-03-26T15:19:02.012Z,8.52
2023-03-26T15:21:34.090Z,8.57
2023-03-26T15:24:16.230Z,8.42
2023-03-26T15:26:51.781Z,8.45
2023-03-26T15:29:42.193Z,8.42
2023-03-26T15:32:26.307Z,8.43
2023-03-26T15:35:05.814Z,8.48
2023-03-26T15:37:54.620Z,8.57
2023-03-26T15:40:36.469Z,8.57
2023-03-26T15:43:16.262Z,8.52
2023-03-26T15:45:54.052Z,8.55
2023-03-26T15:49:16.429Z,8.46
2023-03-26T15:51:52.968Z,8.47
2023-03-26T15:54:30.457Z,8.46
2023-03-26T15:57:07.148Z,8.45
2023-03-26T15:59:52.203Z,8.35
2023-03-26T16:02:44.840Z,8.28
2023-03-26T16:05:27.626Z,8.13
2023-03-26T16:08:25.806Z,8.10
2023-03-26T16:10:58.389Z,8.05
2023-03-26T16:13:34.429Z,7.91
2023-03-26T16:16:04.064Z,7.87
2023-03-26T16:18:41.109Z,7.95
2023-03-26T16:21:36.332Z,7.94
2023-03-26T16:24:03.500Z,7.87
2023-03-26T16:26:52.342Z,7.86
2023-03-26T16:29:25.694Z,7.87
2023-03-26T16:32:07.732Z,7.80
2023-03-26T16:35:00.155Z,7.72
2023-03-26T16:37:40.049Z,7.70
2023-03-26T16:40:22.288Z,7.61
2023-03-26T16:43:15.254Z,7.54
2023-03-26T16:46:19.457Z,7.45
2023-03-26T16:49:07.422Z,7.43
2023-03-26T16:52:11.610Z,7.41
2023-03-26T16:55:00.420Z,7.47
2023-03-26T16:57:36.930Z,7.51
2023-03-26T17:00:13.873Z,7.48
2023-03-26T17:03:04.178Z,7.54
2023-03-26T17:05:49.600Z,7.35
2023-03-26T17:08:35.989Z,7.34
2023-03-26T17:11:21.416Z,7.23
2023-03-26T17:14:24.784Z,7.23
2023-03-26T17:17:03.762Z,7.23
2023-03-26T17:19:35.396Z,7.06
2023-03-26T17:22:23.174Z,7.12
2023-03-26T17:25:04.772Z,7.12
2023-03-26T17:27:50.031Z,7.02
2023-03-26T17:30:52.849Z,7.06
2023-03-26T17:33:32.048Z,7.03
2023-03-26T17:36:21.342Z,7.04
2023-03-26T17:38:47.916Z,7.01
2023-03-26T17:41:35.534Z,6.96
2023-03-26T17:44:26.059Z,7.01
2023-03-26T17:46:57.151Z,6.97
2023-03-26T17:49:31.313Z,6.94
2023-03-26T17:52:17.960Z,6.86
2023-03-26T17:54:47.264Z,6.78
2023-03-26T17:57:25.624Z,6.69
2023-03-26T17:59:57.511Z,6.65
2023-03-26T18:02:39.350Z,6.52
2023-03-26T18:05:09.999Z,6.51
2023-03-26T18:07:48.605Z,6.48
2023-03-26T18:10:28.677Z,6.46
2023-03-26T18:13:17.535Z,6.43
2023-03-26T18:15:57.768Z,6.46
2023-03-26T18:18:34.938Z,6.33
2023-03-26T18:21:07.079Z,6.35
2023-03-26T18:23:37.818Z,6.37
2023-03-26T18:26:16.079Z,6.40
2023-03-26T18:28:48.724Z,6.41
2023-03-26T18:31:26.514Z,6.35
2023-03-26T18:34:06.592Z,6.39
2023-03-26T18:36:33.071Z,6.27
2023-03-26T18:39:00.146Z,6.29
2023-03-26T18:41:34.484Z,6.35
2023-03-26T18:44:04.010Z,6.47
2023-03-26T18:46:32.613Z,6.48
2023-03-26T18:49:01.217Z,6.50
2023-03-26T18:51:29.472Z,6.45
2023-03-26T18:54:00.607Z,6.50
2023-03-26T18:56:28.900Z,6.45
2023-03-26T18:59:01.087Z,6.49
2023-03-26T19:01:32.935Z,6.49
2023-03-26T19:04:04.201Z,6.44
2023-03-26T19:06:35.991Z,6.50
2023-03-26T19:09:16.665Z,6.41
2023-03-26T19:11:56.987Z,6.48
2023-03-26T19:14:25.243Z,6.49
2023-03-26T19:17:03.012Z,6.44
2023-03-26T19:19:36.971Z,6.45
2023-03-26T19:22:07.446Z,6.35
2023-03-26T19:24:34.741Z,6.25
2023-03-26T19:27:01.328Z,6.28
2023-03-26T19:29:32.812Z,6.19
2023-03-26T19:32:18.124Z,6.25
2023-03-26T19:34:46.846Z,6.14
2023-03-26T19:37:26.405Z,6.13
2023-03-26T19:39:54.951Z,6.11
2023-03-26T19:42:43.774Z,6.08
2023-03-26T19:45:22.828Z,6.11
2023-03-26T19:48:03.521Z,6.01
2023-03-26T19:50:42.336Z,5.96
2023-03-26T19:53:16.256Z,5.91
2023-03-26T19:56:05.283Z,5.85
2023-03-26T19:58:33.057Z,5.82
2023-03-26T20:00:59.912Z,5.78
2023-03-26T20:03:41.619Z,5.75
2023-03-26T20:06:21.002Z,5.73
2023-03-26T20:08:51.927Z,5.69
2023-03-26T20:11:24.714Z,5.73
2023-03-26T20:13:52.238Z,5.65
2023-03-26T20:16:29.953Z,5.69
2023-03-26T20:19:02.657Z,5.63
2023-03-26T20:21:30.092Z,5.61
2023-03-26T20:23:56.562Z,5.56
2023-03-26T20:26:23.958Z,5.56
2023-03-26T20:28:53.383Z,5.52
2023-03-26T20:31:25.133Z,5.51
2023-03-26T20:33:53.308Z,5.45
2023-03-26T20:36:34.288Z,5.46
2023-03-26T20:39:05.784Z,5.46
2023-03-26T20:41:34.320Z,5.44
2023-03-26T20:44:00.975Z,5.42
2023-03-26T20:46:31.151Z,5.35
2023-03-26T20:48:58.811Z,5.36
2023-03-26T20:51:28.742Z,5.40
2023-03-26T20:53:55.691Z,5.34
2023-03-26T20:56:22.563Z,5.32
2023-03-26T20:59:09.857Z,5.35
2023-03-26T21:01:37.942Z,5.28
2023-03-26T21:04:04.873Z,5.23
2023-03-26T21:06:32.534Z,5.22
2023-03-26T21:08:59.188Z,5.30
2023-03-26T21:11:43.578Z,5.25
2023-03-26T21:14:20.109Z,5.22
2023-03-26T21:16:46.913Z,5.22
2023-03-26T21:19:14.910Z,5.18
2023-03-26T21:22:02.964Z,5.16
2023-03-26T21:24:42.010Z,5.11
2023-03-26T21:27:17.425Z,5.06
2023-03-26T21:29:44.132Z,5.13
2023-03-26T21:32:12.588Z,5.08
2023-03-26T21:34:47.685Z,5.07
2023-03-26T21:37:20.201Z,5.12
2023-03-26T21:39:46.921Z,4.98
2023-03-26T21:42:14.165Z,4.91
2023-03-26T21:44:41.150Z,4.91
2023-03-26T21:47:09.972Z,4.95
2023-03-26T21:49:37.328Z,4.89
2023-03-26T21:52:05.041Z,4.92
2023-03-26T21:54:32.917Z,4.95
2023-03-26T21:57:31.788Z,4.95
2023-03-26T22:00:18.561Z,4.84
2023-03-26T22:02:57.261Z,4.85
2023-03-26T22:05:28.604Z,4.81
2023-03-26T22:08:03.539Z,4.80
2023-03-26T22:10:31.890Z,4.83
2023-03-26T22:12:59.137Z,4.83
2023-03-26T22:15:30.896Z,4.79
2023-03-26T22:18:05.157Z,4.74
2023-03-26T22:20:31.701Z,4.70
2023-03-26T22:22:58.866Z,4.64
2023-03-26T22:25:25.806Z,4.64
2023-03-26T22:27:52.716Z,4.57
2023-03-26T22:30:20.740Z,4.61
2023-03-26T22:32:48.459Z,4.57
2023-03-26T22:35:15.570Z,4.52
2023-03-26T22:37:42.174Z,4.49
2023-03-26T22:40:09.129Z,4.51
2023-03-26T22:42:36.116Z,4.42
2023-03-26T22:45:04.424Z,4.47
2023-03-26T22:47:33.545Z,4.43
2023-03-26T22:50:00.545Z,4.44
2023-03-26T22:52:28.039Z,4.36
2023-03-26T22:54:54.760Z,4.25
2023-03-26T22:57:24.252Z,4.21
2023-03-26T22:59:51.898Z,4.15
2023-03-26T23:02:19.436Z,4.18
2023-03-26T23:04:48.821Z,4.18
2023-03-26T23:07:15.335Z,4.07
2023-03-26T23:09:41.838Z,3.97
2023-03-26T23:12:08.282Z,3.93
2023-03-26T23:14:34.900Z,3.80
2023-03-26T23:17:01.503Z,3.73
2023-03-26T23:19:29.848Z,3.70
2023-03-26T23:21:57.194Z,3.55
2023-03-26T23:24:26.223Z,3.47
2023-03-26T23:26:53.618Z,3.31
2023-03-26T23:29:20.514Z,3.15
2023-03-26T23:31:47.455Z,3.13
2023-03-26T23:34:15.156Z,3.04
2023-03-26T23:36:42.212Z,2.95
2023-03-26T23:39:09.403Z,2.82
2023-03-26T23:41:36.594Z,2.80
2023-03-26T23:44:04.307Z,2.75
2023-03-26T23:46:33.561Z,2.68
2023-03-26T23:49:02.573Z,2.67
2023-03-26T23:51:32.653Z,2.60
2023-03-26T23:54:00.567Z,2.58
2023-03-26T23:56:27.721Z,2.55
2023-03-26T23:58:55.217Z,2.46
